createdAt,value
2023-04-15T00:03:36.976Z,99433.56
2023-04-15T00:08:38.577Z,99434.47
2023-04-15T00:13:39.759Z,99435.22
2023-04-15T00:18:41.180Z,99433.19
2023-04-15T00:23:42.315Z,99433.31
2023-04-15T00:28:43.579Z,99432.06
2023-04-15T00:33:44.774Z,99433.13
2023-04-15T00:38:46.510Z,99430.31
2023-04-15T00:43:47.989Z,99429.16
2023-04-15T00:48:49.270Z,99433.50
2023-04-15T00:53:51.876Z,99436.31
2023-04-15T00:58:53.088Z,99431.38
2023-04-15T01:03:54.424Z,99432.75
2023-04-15T01:08:55.726Z,99431.66
2023-04-15T01:13:57.468Z,99428.97
2023-04-15T01:18:58.911Z,99426.25
2023-04-15T01:24:00.345Z,99418.78
2023-04-15T01:29:02.106Z,99418.13
2023-04-15T01:34:03.464Z,99425.19
2023-04-15T01:39:05.556Z,99427.31
2023-04-15T01:44:07.405Z,99431.09
2023-04-15T01:49:08.613Z,99427.59
2023-04-15T01:54:09.825Z,99426.19
2023-04-15T01:59:11.050Z,99428.00
2023-04-15T02:04:17.281Z,99424.66
2023-04-15T02:09:18.532Z,99426.97
2023-04-15T02:14:19.765Z,99419.50
2023-04-15T02:19:21.004Z,99426.59
2023-04-15T02:24:22.607Z,99430.72
2023-04-15T02:29:23.855Z,99435.84
2023-04-15T02:34:26.964Z,99435.19
2023-04-15T02:39:28.104Z,99437.13
2023-04-15T02:44:29.256Z,99446.03
2023-04-15T02:49:30.975Z,99445.22
2023-04-15T02:54:34.163Z,99452.53
2023-04-15T02:59:35.518Z,99454.91
2023-04-15T03:04:36.721Z,99457.56
2023-04-15T03:09:40.273Z,99460.00
2023-04-15T03:14:41.670Z,99456.13
2023-04-15T03:19:42.887Z,99464.03
2023-04-15T03:24:44.009Z,99473.16
2023-04-15T03:29:45.209Z,99429.94
2023-04-15T03:34:46.704Z,99475.06
2023-04-15T03:39:47.929Z,99485.09
2023-04-15T03:44:49.114Z,99477.59
2023-04-15T03:49:50.424Z,99486.22
2023-04-15T03:54:51.590Z,99487.06
2023-04-15T03:59:52.843Z,99486.31
2023-04-15T04:04:54.071Z,99486.59
2023-04-15T04:09:55.494Z,99494.94
2023-04-15T04:14:56.644Z,99497.00
2023-04-15T04:19:57.833Z,99487.09
2023-04-15T04:24:59.919Z,99498.28
2023-04-15T04:30:01.488Z,99506.31
2023-04-15T04:35:02.708Z,99491.34
2023-04-15T04:40:04.503Z,99505.13
2023-04-15T04:45:05.760Z,99519.66
2023-04-15T04:50:06.899Z,99521.47
2023-04-15T04:55:08.524Z,99527.44
2023-04-15T05:00:09.800Z,99523.84
2023-04-15T05:05:11.725Z,99539.34
2023-04-15T05:10:14.704Z,99537.19
2023-04-15T05:15:15.905Z,99549.13
2023-04-15T05:20:17.131Z,99544.34
2023-04-15T05:25:18.357Z,99548.00
2023-04-15T05:30:19.616Z,99548.53
2023-04-15T05:35:20.760Z,99571.97
2023-04-15T05:40:22.260Z,99568.56
2023-04-15T05:45:23.458Z,99564.09
2023-04-15T05:50:24.613Z,99573.81
2023-04-15T05:55:25.777Z,99576.94
2023-04-15T06:00:27.323Z,99572.47
2023-04-15T06:05:28.496Z,99584.69
2023-04-15T06:10:29.721Z,99590.16
2023-04-15T06:15:31.148Z,99590.47
2023-04-15T06:20:32.593Z,99599.13
2023-04-15T06:25:33.778Z,99610.28
2023-04-15T06:30:36.002Z,99606.84
2023-04-15T06:35:37.602Z,99610.16
2023-04-15T06:40:38.776Z,99620.16
2023-04-15T06:45:40.248Z,99616.25
2023-04-15T06:50:41.516Z,99627.50
2023-04-15T06:55:42.722Z,99638.78
2023-04-15T07:00:44.833Z,99641.06
2023-04-15T07:05:46.301Z,99636.31
2023-04-15T07:10:47.500Z,99644.41
2023-04-15T07:15:48.816Z,99649.53
2023-04-15T07:20:50.089Z,99649.88
2023-04-15T07:25:52.164Z,99652.78
2023-04-15T07:30:53.387Z,99663.94
2023-04-15T07:35:54.641Z,99664.28
2023-04-15T07:40:56.532Z,99666.28
2023-04-15T07:45:57.803Z,99679.91
2023-04-15T07:50:59.081Z,99680.53
2023-04-15T07:56:00.519Z,99682.28
2023-04-15T08:01:02.235Z,99687.66
2023-04-15T08:06:03.919Z,99695.31
2023-04-15T08:11:05.491Z,99697.25
2023-04-15T08:16:06.925Z,99709.19
2023-04-15T08:21:08.525Z,99707.22
2023-04-15T08:26:09.895Z,99707.81
2023-04-15T08:31:11.238Z,99716.25
2023-04-15T08:36:13.848Z,99725.75
2023-04-15T08:41:15.050Z,99726.72
2023-04-15T08:46:16.588Z,99730.94
2023-04-15T08:51:18.052Z,99732.22
2023-04-15T08:56:19.332Z,99745.25
2023-04-15T09:01:20.976Z,99740.28
2023-04-15T09:06:22.390Z,99757.34
2023-04-15T09:11:23.708Z,99756.63
2023-04-15T09:16:24.871Z,99764.91
2023-04-15T09:21:26.096Z,99767.25
2023-04-15T09:26:27.296Z,99766.00
2023-04-15T09:31:28.495Z,99773.97
2023-04-15T09:36:30.397Z,99781.53
2023-04-15T09:41:31.567Z,99789.31
2023-04-15T09:46:32.784Z,99794.28
2023-04-15T09:51:34.268Z,99784.34
2023-04-15T09:56:37.319Z,99802.69
2023-04-15T10:01:38.599Z,99815.09
2023-04-15T10:06:39.840Z,99812.47
2023-04-15T10:11:41.036Z,99823.56
2023-04-15T10:16:43.188Z,99813.13
2023-04-15T10:21:45.103Z,99823.78
2023-04-15T10:26:46.848Z,99832.84
2023-04-15T10:31:48.107Z,99833.47
2023-04-15T10:36:49.386Z,99810.16
2023-04-15T10:41:50.555Z,99833.44
2023-04-15T10:46:51.768Z,99833.19
2023-04-15T10:51:52.972Z,99834.91
2023-04-15T10:56:54.171Z,99841.28
2023-04-15T11:01:56.505Z,99845.16
2023-04-15T11:06:58.142Z,99852.59
2023-04-15T11:11:59.359Z,99862.81
2023-04-15T11:17:00.649Z,99854.13
2023-04-15T11:22:02.032Z,99854.56
2023-04-15T11:27:03.275Z,99867.28
2023-04-15T11:32:04.628Z,99858.13
2023-04-15T11:37:06.270Z,99879.13
2023-04-15T11:42:07.447Z,99881.53
2023-04-15T11:47:08.672Z,99890.22
2023-04-15T11:52:09.836Z,99890.84
2023-04-15T11:57:11.023Z,99896.31
2023-04-15T12:02:12.892Z,99913.53
2023-04-15T12:07:14.164Z,99910.53
2023-04-15T12:12:15.505Z,99918.06
2023-04-15T12:17:17.133Z,99936.06
2023-04-15T12:22:18.481Z,99939.88
2023-04-15T12:27:19.617Z,99948.16
2023-04-15T12:32:21.414Z,99950.06
2023-04-15T12:37:22.998Z,99970.66
2023-04-15T12:42:24.198Z,99978.44
2023-04-15T12:47:25.484Z,99984.09
2023-04-15T12:52:26.719Z,99994.91
2023-04-15T12:57:27.949Z,99998.69
2023-04-15T13:02:29.441Z,100005.81
2023-04-15T13:07:30.825Z,100013.28
2023-04-15T13:12:32.931Z,100013.63
2023-04-15T13:17:34.202Z,100027.91
2023-04-15T13:22:35.467Z,100030.66
2023-04-15T13:27:36.834Z,100039.19
2023-04-15T13:32:38.033Z,100037.53
2023-04-15T13:37:39.559Z,100042.72
2023-04-15T13:42:40.939Z,100055.94
2023-04-15T13:47:42.217Z,100052.25
2023-04-15T13:52:43.642Z,100064.06
2023-04-15T13:57:45.069Z,100061.75
2023-04-15T14:02:46.681Z,100074.91
2023-04-15T14:07:47.901Z,100082.81
2023-04-15T14:12:49.067Z,100091.34
2023-04-15T14:17:50.479Z,100090.91
2023-04-15T14:22:51.785Z,100090.16
2023-04-15T14:27:53.018Z,100092.31
2023-04-15T14:32:54.282Z,100090.75
2023-04-15T14:37:55.729Z,100097.19
2023-04-15T14:42:56.991Z,100091.25
2023-04-15T14:47:58.333Z,100108.84
2023-04-15T14:53:00.162Z,100110.78
2023-04-15T14:58:02.399Z,100129.06
2023-04-15T15:03:03.932Z,100121.47
2023-04-15T15:08:05.175Z,100137.41
2023-04-15T15:13:06.348Z,100086.66
2023-04-15T15:18:07.655Z,100139.06
2023-04-15T15:23:08.926Z,100143.91
2023-04-15T15:28:10.514Z,100159.66
2023-04-15T15:33:11.737Z,100172.19
2023-04-15T15:38:13.157Z,100176.19
2023-04-15T15:43:14.403Z,100179.50
2023-04-15T15:48:15.680Z,100186.00
2023-04-15T15:53:20.621Z,100191.41
2023-04-15T15:58:21.933Z,100190.13
2023-04-15T16:03:23.366Z,100194.66
2023-04-15T16:08:24.967Z,100204.28
2023-04-15T16:13:26.127Z,100215.09
2023-04-15T16:18:27.322Z,100220.72
2023-04-15T16:23:28.724Z,100224.47
2023-04-15T16:28:30.032Z,100233.59
2023-04-15T16:33:31.171Z,100242.25
2023-04-15T16:38:32.350Z,100246.94
2023-04-15T16:43:33.510Z,100247.44
2023-04-15T16:48:34.740Z,100252.19
2023-04-15T16:53:35.978Z,100261.84
2023-04-15T16:58:37.274Z,100259.72
2023-04-15T17:03:39.920Z,100267.84
2023-04-15T17:08:41.210Z,100269.72
2023-04-15T17:13:42.496Z,100276.25
2023-04-15T17:18:44.036Z,100281.50
2023-04-15T17:23:45.426Z,100293.31
2023-04-15T17:28:46.614Z,100290.75
2023-04-15T17:34:01.459Z,100306.03
2023-04-15T17:39:10.592Z,100303.84
2023-04-15T17:44:11.717Z,100312.31
2023-04-15T17:49:12.944Z,100322.06
2023-04-15T17:54:14.077Z,100323.38
2023-04-15T17:59:16.341Z,100336.97
2023-04-15T18:04:17.657Z,100338.81
2023-04-15T18:09:18.940Z,100348.03
2023-04-15T18:14:31.135Z,100359.59
2023-04-15T18:19:35.230Z,100371.16
2023-04-15T18:24:36.453Z,100377.25
2023-04-15T18:29:37.874Z,100386.16
2023-04-15T18:34:39.150Z,100390.63
2023-04-15T18:39:40.280Z,100397.47
2023-04-15T18:44:41.448Z,100400.19
2023-04-15T18:49:42.634Z,100401.81
2023-04-15T18:54:43.859Z,100415.38
2023-04-15T18:59:45.033Z,100413.28
2023-04-15T19:04:46.238Z,100425.84
2023-04-15T19:09:47.411Z,100434.03
2023-04-15T19:14:48.554Z,100436.38
2023-04-15T19:19:49.742Z,100442.13
2023-04-15T19:24:50.941Z,100452.84
2023-04-15T19:29:52.175Z,100453.13
2023-04-15T19:34:53.366Z,100462.56
2023-04-15T19:39:54.632Z,100465.19
2023-04-15T19:44:55.813Z,100473.03
2023-04-15T19:49:56.997Z,100480.91
2023-04-15T19:54:58.225Z,100490.28
2023-04-15T19:59:59.389Z,100494.25
2023-04-15T20:05:00.597Z,100492.94
2023-04-15T20:10:01.741Z,100497.41
2023-04-15T20:15:02.966Z,100497.16
2023-04-15T20:20:04.672Z,100504.22
2023-04-15T20:25:06.051Z,100514.94
2023-04-15T20:30:07.313Z,100516.28
2023-04-15T20:35:08.588Z,100522.78
2023-04-15T20:40:09.807Z,100518.13
2023-04-15T20:45:11.369Z,100512.59
2023-04-15T20:50:12.542Z,100521.50
2023-04-15T20:55:13.702Z,100521.00
2023-04-15T21:00:14.863Z,100517.06
2023-04-15T21:05:16.214Z,100531.72
2023-04-15T21:10:17.405Z,100528.56
2023-04-15T21:15:18.553Z,100519.94
2023-04-15T21:20:19.912Z,100522.28
2023-04-15T21:25:21.253Z,100536.13
2023-04-15T21:30:23.767Z,100538.25
2023-04-15T21:35:25.089Z,100551.31
2023-04-15T21:40:26.337Z,100553.41
2023-04-15T21:45:27.622Z,100554.19
2023-04-15T21:50:28.866Z,100555.00
2023-04-15T21:55:30.090Z,100560.47
2023-04-15T22:00:31.410Z,100575.91
2023-04-15T22:05:32.666Z,100574.84
2023-04-15T22:10:33.875Z,100588.72
2023-04-15T22:15:35.667Z,100582.94
2023-04-15T22:20:36.857Z,100583.47
2023-04-15T22:25:38.161Z,100590.28
2023-04-15T22:30:39.424Z,100600.75
2023-04-15T22:35:40.606Z,100607.53
2023-04-15T22:40:41.784Z,100608.59
2023-04-15T22:45:42.974Z,100610.16
2023-04-15T22:50:44.218Z,100617.75
2023-04-15T22:55:45.966Z,100616.69
2023-04-15T23:00:47.131Z,100632.88
2023-04-15T23:05:48.307Z,100643.34
2023-04-15T23:10:50.588Z,100633.94
2023-04-15T23:15:51.810Z,100638.91
2023-04-15T23:20:53.121Z,100641.53
2023-04-15T23:25:54.350Z,100648.06
2023-04-15T23:30:55.546Z,100648.31
2023-04-15T23:35:56.857Z,100650.41
2023-04-15T23:40:58.088Z,100645.69
2023-04-15T23:45:59.293Z,100642.81
2023-04-15T23:51:01.499Z,100654.59
2023-04-15T23:56:02.744Z,100650.94
